createdAt,value
2018-08-03T00:00:21.635Z,41.46
2018-08-03T00:02:50.399Z,41.17
2018-08-03T00:05:19.081Z,41.23
2018-08-03T00:07:47.867Z,40.88
2018-08-03T00:10:16.570Z,40.51
2018-08-03T00:12:45.543Z,40.86
2018-08-03T00:15:14.174Z,39.95
2018-08-03T00:17:43.080Z,40.33
2018-08-03T00:20:11.922Z,39.78
2018-08-03T00:22:41.133Z,40.50
2018-08-03T00:25:09.828Z,40.10
2018-08-03T00:27:38.480Z,40.10
2018-08-03T00:30:07.679Z,40.09
2018-08-03T00:32:36.716Z,40.81
2018-08-03T00:35:05.737Z,40.77
2018-08-03T00:37:34.353Z,40.62
2018-08-03T00:40:04.273Z,40.99
2018-08-03T00:42:32.888Z,39.69
2018-08-03T00:45:01.540Z,40.26
2018-08-03T00:47:30.199Z,41.00
2018-08-03T00:49:58.912Z,40.80
2018-08-03T00:52:27.552Z,41.12
2018-08-03T00:54:56.491Z,41.00
2018-08-03T00:57:25.158Z,40.88
2018-08-03T00:59:53.814Z,40.79
2018-08-03T01:02:22.522Z,41.00
2018-08-03T01:04:51.458Z,41.24
2018-08-03T01:07:20.148Z,41.76
2018-08-03T01:09:49.257Z,42.21
2018-08-03T01:12:18.265Z,42.38
2018-08-03T01:14:47.833Z,41.62
2018-08-03T01:17:17.162Z,42.31
2018-08-03T01:19:45.938Z,42.44
2018-08-03T01:22:14.970Z,42.09
2018-08-03T01:24:43.988Z,42.76
2018-08-03T01:27:13.244Z,42.38
2018-08-03T01:29:41.916Z,42.07
2018-08-03T01:32:10.819Z,42.52
2018-08-03T01:34:39.888Z,42.43
2018-08-03T01:37:09.028Z,42.98
2018-08-03T01:39:37.732Z,42.66
2018-08-03T01:42:06.755Z,43.37
2018-08-03T01:44:35.718Z,43.40
2018-08-03T01:47:04.447Z,43.55
2018-08-03T01:49:33.418Z,43.11
2018-08-03T01:52:02.452Z,43.59
2018-08-03T01:54:31.316Z,43.62
2018-08-03T01:57:00.225Z,43.08
2018-08-03T01:59:29.380Z,43.36
2018-08-03T02:01:58.076Z,43.62
2018-08-03T02:04:26.854Z,43.52
2018-08-03T02:06:56.389Z,43.50
2018-08-03T02:09:25.089Z,43.26
2018-08-03T02:11:53.774Z,44.10
2018-08-03T02:14:22.986Z,43.57
2018-08-03T02:16:52.162Z,44.41
2018-08-03T02:19:21.098Z,43.44
2018-08-03T02:21:49.955Z,43.58
2018-08-03T02:24:19.493Z,43.86
2018-08-03T02:26:49.568Z,43.13
2018-08-03T02:29:18.251Z,43.16
2018-08-03T02:31:47.182Z,43.93
2018-08-03T02:34:16.175Z,43.17
2018-08-03T02:36:44.773Z,43.25
2018-08-03T02:39:13.473Z,43.28
2018-08-03T02:41:42.217Z,44.04
2018-08-03T02:44:11.246Z,43.77
2018-08-03T02:46:40.593Z,43.89
2018-08-03T02:49:09.533Z,43.79
2018-08-03T02:51:38.247Z,43.79
2018-08-03T02:54:07.039Z,43.06
2018-08-03T02:56:36.318Z,43.03
2018-08-03T02:59:04.973Z,42.64
2018-08-03T03:01:33.652Z,43.20
2018-08-03T03:04:02.369Z,42.91
2018-08-03T03:06:31.041Z,43.59
2018-08-03T03:08:59.802Z,42.96
2018-08-03T03:11:29.351Z,42.75
2018-08-03T03:13:58.026Z,43.20
2018-08-03T03:16:26.754Z,42.95
2018-08-03T03:18:55.734Z,43.68
2018-08-03T03:21:24.386Z,43.89
2018-08-03T03:23:53.017Z,43.21
2018-08-03T03:26:21.985Z,43.12
2018-08-03T03:28:51.333Z,43.66
2018-08-03T03:31:20.006Z,43.96
2018-08-03T03:33:48.754Z,44.05
2018-08-03T03:36:17.438Z,43.78
2018-08-03T03:38:46.164Z,43.94
2018-08-03T03:41:14.804Z,44.08
2018-08-03T03:43:43.759Z,43.47
2018-08-03T03:46:12.393Z,44.58
2018-08-03T03:48:41.310Z,44.44
2018-08-03T03:51:10.068Z,43.73
2018-08-03T03:53:39.101Z,43.87
2018-08-03T03:56:07.996Z,44.64
2018-08-03T03:58:36.648Z,44.67
2018-08-03T04:01:05.375Z,45.27
2018-08-03T04:03:34.348Z,45.14
2018-08-03T04:06:03.111Z,44.58
2018-08-03T04:08:32.084Z,44.34
2018-08-03T04:11:00.792Z,44.34
2018-08-03T04:13:29.515Z,44.17
2018-08-03T04:15:58.189Z,44.65
2018-08-03T04:18:27.069Z,45.24
2018-08-03T04:20:56.127Z,44.89
2018-08-03T04:23:24.853Z,45.65
2018-08-03T04:25:53.555Z,45.67
2018-08-03T04:28:22.543Z,46.04
2018-08-03T04:30:51.558Z,46.07
2018-08-03T04:33:20.179Z,46.62
2018-08-03T04:35:48.825Z,46.72
2018-08-03T04:38:17.854Z,46.81
2018-08-03T04:40:46.650Z,47.14
2018-08-03T04:43:15.403Z,46.34
2018-08-03T04:45:44.600Z,46.82
2018-08-03T04:48:13.352Z,47.14
2018-08-03T04:50:42.282Z,47.54
2018-08-03T04:53:11.023Z,46.66
2018-08-03T04:55:39.911Z,46.47
2018-08-03T04:58:08.671Z,47.23
2018-08-03T05:00:40.345Z,46.30
2018-08-03T05:03:09.020Z,46.85
2018-08-03T05:05:37.995Z,46.53
2018-08-03T05:08:06.791Z,45.24
2018-08-03T05:10:35.661Z,44.86
2018-08-03T05:13:04.754Z,45.21
2018-08-03T05:15:33.660Z,45.80
2018-08-03T05:18:02.654Z,45.87
2018-08-03T05:20:31.430Z,45.83
2018-08-03T05:23:00.095Z,45.81
2018-08-03T05:25:29.027Z,45.38
2018-08-03T05:27:58.056Z,46.05
2018-08-03T05:30:27.123Z,45.01
2018-08-03T05:32:55.937Z,46.00
2018-08-03T05:35:24.842Z,45.94
2018-08-03T05:37:53.886Z,45.62
2018-08-03T05:40:22.540Z,45.46
2018-08-03T05:42:51.570Z,45.96
2018-08-03T05:45:20.272Z,45.43
2018-08-03T05:47:49.142Z,45.39
2018-08-03T05:50:17.931Z,44.71
2018-08-03T05:52:46.566Z,44.50
2018-08-03T05:55:15.882Z,45.81
2018-08-03T05:57:44.563Z,45.28
2018-08-03T06:00:13.306Z,45.06
2018-08-03T06:02:41.934Z,44.89
2018-08-03T06:05:10.652Z,44.87
2018-08-03T06:07:39.797Z,44.26
2018-08-03T06:10:08.547Z,44.29
2018-08-03T06:12:37.288Z,44.18
2018-08-03T06:15:08.226Z,44.23
2018-08-03T06:17:37.177Z,44.75
2018-08-03T06:20:07.295Z,44.77
2018-08-03T06:22:36.070Z,44.10
2018-08-03T06:25:05.315Z,44.02
2018-08-03T06:27:33.988Z,44.64
2018-08-03T06:30:02.763Z,44.12
2018-08-03T06:32:31.404Z,42.92
2018-08-03T06:35:00.057Z,42.66
2018-08-03T06:37:29.091Z,42.18
2018-08-03T06:39:57.738Z,41.91
2018-08-03T06:42:26.413Z,41.63
2018-08-03T06:44:55.253Z,41.17
2018-08-03T06:47:24.034Z,42.10
2018-08-03T06:49:52.757Z,41.76
2018-08-03T06:52:21.470Z,40.83
2018-08-03T06:54:50.205Z,40.71
2018-08-03T06:57:19.108Z,40.00
2018-08-03T06:59:47.869Z,39.35
2018-08-03T07:02:16.565Z,39.01
2018-08-03T07:04:45.565Z,38.96
2018-08-03T07:07:14.273Z,39.56
2018-08-03T07:09:43.233Z,36.90
2018-08-03T07:12:12.195Z,37.19
2018-08-03T07:14:41.162Z,37.61
2018-08-03T07:17:09.823Z,37.18
2018-08-03T07:19:38.437Z,37.23
2018-08-03T07:22:07.448Z,36.68
2018-08-03T07:24:36.377Z,36.73
2018-08-03T07:27:06.188Z,38.64
2018-08-03T07:29:35.450Z,38.71
2018-08-03T07:32:04.142Z,36.54
2018-08-03T07:34:32.924Z,36.29
2018-08-03T07:37:01.995Z,37.42
2018-08-03T07:39:31.004Z,36.35
2018-08-03T07:41:59.673Z,35.15
2018-08-03T07:44:28.427Z,35.72
2018-08-03T07:46:57.178Z,35.45
2018-08-03T07:49:25.827Z,35.09
2018-08-03T07:51:54.798Z,35.66
2018-08-03T07:54:23.473Z,37.06
2018-08-03T07:56:52.079Z,36.58
2018-08-03T07:59:21.340Z,36.46
2018-08-03T08:01:50.150Z,36.10
2018-08-03T08:04:19.115Z,36.64
2018-08-03T08:06:47.731Z,35.49
2018-08-03T08:09:16.409Z,37.22
2018-08-03T08:11:45.108Z,36.08
2018-08-03T08:14:14.193Z,34.94
2018-08-03T08:16:42.958Z,34.10
2018-08-03T08:19:11.694Z,35.97
2018-08-03T08:21:40.345Z,33.84
2018-08-03T08:24:09.132Z,32.83
2018-08-03T08:26:37.789Z,33.38
2018-08-03T08:29:06.720Z,33.99
2018-08-03T08:31:35.440Z,34.28
2018-08-03T08:34:04.125Z,33.82
2018-08-03T08:36:32.866Z,32.85
2018-08-03T08:39:01.505Z,31.61
2018-08-03T08:41:30.623Z,30.93
2018-08-03T08:43:59.697Z,31.11
2018-08-03T08:46:28.370Z,31.39
2018-08-03T08:48:57.134Z,30.64
2018-08-03T08:51:25.913Z,28.52
2018-08-03T08:53:54.561Z,28.73
2018-08-03T08:56:23.509Z,27.53
2018-08-03T08:58:52.290Z,27.98
2018-08-03T09:01:20.956Z,28.32
2018-08-03T09:03:50.023Z,27.61
2018-08-03T09:06:18.963Z,26.09
2018-08-03T09:08:47.663Z,27.49
2018-08-03T09:11:16.662Z,27.18
2018-08-03T09:13:45.313Z,27.18
2018-08-03T09:16:13.957Z,28.66
2018-08-03T09:18:42.912Z,26.62
2018-08-03T09:21:11.717Z,27.72
2018-08-03T09:23:40.402Z,27.17
2018-08-03T09:26:09.127Z,26.91
2018-08-03T09:28:38.104Z,26.60
2018-08-03T09:31:06.799Z,26.02
2018-08-03T09:33:35.471Z,26.32
2018-08-03T09:36:04.305Z,26.90
2018-08-03T09:38:33.365Z,26.65
2018-08-03T09:41:02.033Z,26.54
2018-08-03T09:43:30.934Z,25.39
2018-08-03T09:45:59.611Z,26.62
2018-08-03T09:48:28.708Z,27.34
2018-08-03T09:50:57.349Z,28.11
2018-08-03T09:53:26.022Z,28.87
2018-08-03T09:55:54.706Z,29.44
2018-08-03T09:58:23.353Z,28.66
2018-08-03T10:00:57.982Z,27.67
2018-08-03T10:03:26.613Z,29.99
2018-08-03T10:05:55.957Z,30.14
2018-08-03T10:08:26.094Z,29.53
2018-08-03T10:10:54.851Z,29.86
2018-08-03T10:13:23.832Z,28.40
2018-08-03T10:15:52.906Z,29.41
2018-08-03T10:18:22.874Z,28.75
2018-08-03T10:20:51.528Z,30.52
2018-08-03T10:23:20.202Z,29.16
2018-08-03T10:25:49.228Z,29.11
2018-08-03T10:28:18.756Z,28.21
2018-08-03T10:30:48.134Z,29.54
2018-08-03T10:33:17.061Z,26.88
2018-08-03T10:35:45.682Z,30.11
2018-08-03T10:38:15.125Z,27.95
2018-08-03T10:40:44.019Z,27.14
2018-08-03T10:43:13.111Z,27.94
2018-08-03T10:45:41.873Z,26.93
2018-08-03T10:48:10.579Z,25.90
2018-08-03T10:50:39.794Z,28.40
2018-08-03T10:53:08.936Z,27.71
2018-08-03T10:55:37.760Z,28.00
2018-08-03T10:58:06.823Z,27.19
2018-08-03T11:00:35.514Z,27.73
2018-08-03T11:03:04.537Z,27.44
2018-08-03T11:05:33.214Z,28.15
2018-08-03T11:08:01.852Z,28.12
2018-08-03T11:10:30.820Z,29.13
2018-08-03T11:12:59.755Z,28.13
2018-08-03T11:15:28.697Z,27.34
2018-08-03T11:17:57.349Z,27.57
2018-08-03T11:20:26.378Z,27.98
2018-08-03T11:22:55.014Z,28.61
2018-08-03T11:25:24.017Z,28.40
2018-08-03T11:27:52.643Z,27.87
2018-08-03T11:30:21.558Z,28.02
2018-08-03T11:32:50.746Z,27.08
2018-08-03T11:35:19.407Z,25.57
2018-08-03T11:37:48.425Z,25.56
2018-08-03T11:40:17.087Z,24.44
2018-08-03T11:42:46.314Z,25.07
2018-08-03T11:45:15.281Z,24.46
2018-08-03T11:47:43.945Z,25.38
2018-08-03T11:50:12.626Z,24.66
2018-08-03T11:52:41.312Z,23.94
2018-08-03T11:55:10.221Z,23.67
2018-08-03T11:57:38.877Z,24.98
2018-08-03T12:00:07.596Z,24.54
2018-08-03T12:02:37.411Z,22.89
2018-08-03T12:05:06.368Z,21.56
2018-08-03T12:07:35.061Z,18.85
2018-08-03T12:10:03.716Z,17.03
2018-08-03T12:12:32.400Z,16.46
2018-08-03T12:15:01.263Z,14.16
2018-08-03T12:17:30.191Z,15.10
2018-08-03T12:19:59.086Z,14.27
2018-08-03T12:22:28.765Z,13.68
2018-08-03T12:24:57.896Z,12.86
2018-08-03T12:27:26.684Z,12.97
2018-08-03T12:29:56.046Z,13.03
2018-08-03T12:32:24.767Z,12.90
2018-08-03T12:34:53.635Z,14.19
2018-08-03T12:37:22.290Z,13.58
2018-08-03T12:39:50.951Z,10.84
2018-08-03T12:42:19.573Z,14.85
2018-08-03T12:44:48.690Z,12.98
2018-08-03T12:47:17.482Z,12.27
2018-08-03T12:49:46.444Z,16.19
2018-08-03T12:52:15.184Z,12.99
2018-08-03T12:54:44.392Z,11.78
2018-08-03T12:57:13.271Z,13.86
2018-08-03T12:59:42.048Z,14.57
2018-08-03T13:02:10.649Z,16.54
2018-08-03T13:04:39.841Z,12.50
2018-08-03T13:07:08.893Z,14.73
2018-08-03T13:09:37.489Z,16.43
2018-08-03T13:12:06.202Z,11.33
2018-08-03T13:14:34.922Z,13.39
2018-08-03T13:17:03.616Z,11.41
2018-08-03T13:19:32.400Z,15.79
2018-08-03T13:22:07.613Z,13.47
2018-08-03T13:24:36.435Z,14.10
2018-08-03T13:27:05.062Z,10.36
2018-08-03T13:29:33.770Z,10.22
2018-08-03T13:32:02.627Z,16.19
2018-08-03T13:34:31.688Z,12.03
2018-08-03T13:37:00.741Z,15.81
2018-08-03T13:39:29.488Z,11.03
2018-08-03T13:41:58.503Z,9.59
2018-08-03T13:44:27.207Z,13.27
2018-08-03T13:46:55.907Z,11.94
2018-08-03T13:49:24.919Z,16.89
2018-08-03T13:51:53.546Z,11.07
2018-08-03T13:54:22.172Z,11.03
2018-08-03T13:56:50.760Z,14.96
2018-08-03T13:59:19.735Z,14.30
2018-08-03T14:02:29.216Z,9.62
2018-08-03T14:04:58.089Z,13.28
2018-08-03T14:07:27.906Z,13.99
2018-08-03T14:09:56.501Z,14.77
2018-08-03T14:12:25.696Z,13.95
2018-08-03T14:14:54.644Z,14.68
2018-08-03T14:17:23.622Z,11.13
2018-08-03T14:19:52.590Z,16.18
2018-08-03T14:22:21.238Z,16.83
2018-08-03T14:24:50.310Z,12.42
2018-08-03T14:27:18.924Z,14.86
2018-08-03T14:29:47.497Z,15.88
2018-08-03T14:32:16.423Z,15.99
2018-08-03T14:34:45.452Z,15.18
2018-08-03T14:37:14.501Z,14.73
2018-08-03T14:39:43.124Z,12.90
2018-08-03T14:42:11.886Z,12.99
2018-08-03T14:44:40.799Z,14.58
2018-08-03T14:47:09.459Z,14.90
2018-08-03T14:49:38.068Z,15.32
2018-08-03T14:52:07.026Z,15.60
2018-08-03T14:54:35.950Z,16.15
2018-08-03T14:57:04.937Z,17.18
2018-08-03T14:59:33.662Z,17.26
2018-08-03T15:02:02.367Z,17.28
2018-08-03T15:04:31.305Z,18.05
2018-08-03T15:07:00.014Z,19.62
2018-08-03T15:09:28.778Z,20.35
2018-08-03T15:11:57.522Z,20.91
2018-08-03T15:14:26.202Z,21.01
2018-08-03T15:16:55.000Z,22.23
2018-08-03T15:19:23.706Z,22.27
2018-08-03T15:21:52.659Z,22.76
2018-08-03T15:24:21.618Z,23.82
2018-08-03T15:26:50.276Z,22.74
2018-08-03T15:29:19.218Z,22.36
2018-08-03T15:31:48.143Z,22.48
2018-08-03T15:34:17.246Z,24.05
2018-08-03T15:36:45.939Z,23.85
2018-08-03T15:39:14.871Z,24.24
2018-08-03T15:41:43.879Z,24.71
2018-08-03T15:44:12.566Z,24.94
2018-08-03T15:46:41.826Z,25.05
2018-08-03T15:49:10.642Z,24.02
2018-08-03T15:51:39.277Z,24.94
2018-08-03T15:54:08.009Z,24.65
2018-08-03T15:56:37.011Z,24.43
2018-08-03T15:59:06.118Z,25.38
2018-08-03T16:01:34.943Z,24.99
2018-08-03T16:04:04.204Z,25.22
2018-08-03T16:06:33.081Z,24.89
2018-08-03T16:09:01.857Z,25.82
2018-08-03T16:11:30.488Z,25.47
2018-08-03T16:13:59.142Z,25.74
2018-08-03T16:16:27.743Z,24.97
2018-08-03T16:18:56.420Z,25.59
2018-08-03T16:21:25.350Z,26.75
2018-08-03T16:23:54.076Z,26.29
2018-08-03T16:26:22.737Z,27.94
2018-08-03T16:28:51.422Z,27.34
2018-08-03T16:31:20.085Z,26.75
2018-08-03T16:33:49.362Z,27.53
2018-08-03T16:36:18.670Z,27.65
2018-08-03T16:38:47.463Z,26.86
2018-08-03T16:41:16.381Z,27.49
2018-08-03T16:43:45.339Z,27.23
2018-08-03T16:46:14.031Z,27.97
2018-08-03T16:48:43.216Z,27.97
2018-08-03T16:51:12.232Z,27.70
2018-08-03T16:53:41.174Z,27.85
2018-08-03T16:56:09.828Z,27.51
2018-08-03T16:58:38.533Z,27.92
2018-08-03T17:01:07.317Z,27.85
2018-08-03T17:03:36.000Z,28.29
2018-08-03T17:06:04.815Z,29.00
2018-08-03T17:08:33.496Z,29.13
2018-08-03T17:11:02.649Z,28.63
2018-08-03T17:13:31.518Z,28.21
2018-08-03T17:16:00.437Z,27.69
2018-08-03T17:18:29.147Z,28.68
2018-08-03T17:20:57.784Z,29.17
2018-08-03T17:23:26.476Z,28.72
2018-08-03T17:25:55.252Z,29.05
2018-08-03T17:28:24.361Z,29.24
2018-08-03T17:30:53.060Z,28.22
2018-08-03T17:33:21.775Z,29.12
2018-08-03T17:35:50.416Z,29.57
2018-08-03T17:38:19.385Z,29.07
2018-08-03T17:40:48.436Z,29.62
2018-08-03T17:43:17.183Z,29.19
2018-08-03T17:45:45.865Z,28.46
2018-08-03T17:48:15.608Z,28.89
2018-08-03T17:50:44.285Z,28.99
2018-08-03T17:53:13.628Z,29.68
2018-08-03T17:55:42.425Z,29.83
2018-08-03T17:58:11.219Z,28.96
2018-08-03T18:00:40.063Z,29.24
2018-08-03T18:03:08.763Z,29.49
2018-08-03T18:05:37.467Z,29.85
2018-08-03T18:08:06.133Z,29.62
2018-08-03T18:10:35.122Z,29.66
2018-08-03T18:13:03.931Z,29.48
2018-08-03T18:15:32.963Z,29.32
2018-08-03T18:18:01.799Z,29.45
2018-08-03T18:20:30.776Z,30.13
2018-08-03T18:22:59.736Z,30.25
2018-08-03T18:25:28.402Z,29.84
2018-08-03T18:27:57.213Z,29.90
2018-08-03T18:30:25.968Z,30.33
2018-08-03T18:32:54.619Z,29.96
2018-08-03T18:35:23.321Z,29.73
2018-08-03T18:37:52.075Z,29.84
2018-08-03T18:40:20.816Z,29.83
2018-08-03T18:42:49.950Z,29.48
2018-08-03T18:45:18.693Z,29.82
2018-08-03T18:47:47.652Z,29.54
2018-08-03T18:50:16.275Z,29.54
2018-08-03T18:52:45.642Z,29.81
2018-08-03T18:55:14.404Z,29.84
2018-08-03T18:57:43.045Z,30.04
2018-08-03T19:00:11.798Z,30.63
2018-08-03T19:02:41.797Z,30.62
2018-08-03T19:05:10.901Z,30.19
2018-08-03T19:07:41.051Z,30.13
2018-08-03T19:10:10.083Z,29.83
2018-08-03T19:12:39.534Z,30.21
2018-08-03T19:15:09.616Z,30.35
2018-08-03T19:17:38.762Z,30.12
2018-08-03T19:20:08.614Z,30.29
2018-08-03T19:22:38.055Z,30.20
2018-08-03T19:25:07.121Z,30.42
2018-08-03T19:27:36.271Z,30.81
2018-08-03T19:30:05.136Z,30.35
2018-08-03T19:32:33.781Z,30.34
2018-08-03T19:35:02.621Z,30.87
2018-08-03T19:37:31.296Z,30.43
2018-08-03T19:40:00.455Z,31.33
2018-08-03T19:42:29.213Z,30.69
2018-08-03T19:44:58.316Z,31.12
2018-08-03T19:47:27.048Z,31.89
2018-08-03T19:49:56.099Z,32.32
2018-08-03T19:52:24.818Z,34.10
2018-08-03T19:54:53.541Z,33.16
2018-08-03T19:57:22.310Z,32.19
2018-08-03T19:59:50.978Z,33.19
2018-08-03T20:02:19.947Z,33.45
2018-08-03T20:04:48.650Z,33.89
2018-08-03T20:07:17.460Z,32.79
2018-08-03T20:09:46.157Z,33.26
2018-08-03T20:12:14.866Z,33.10
2018-08-03T20:14:43.566Z,34.09
2018-08-03T20:17:12.334Z,34.69
2018-08-03T20:19:41.065Z,34.26
2018-08-03T20:22:14.870Z,33.87
2018-08-03T20:24:43.845Z,33.90
2018-08-03T20:27:13.214Z,34.99
2018-08-03T20:29:42.078Z,35.33
2018-08-03T20:32:10.845Z,34.27
2018-08-03T20:34:39.626Z,35.20
2018-08-03T20:37:08.727Z,34.62
2018-08-03T20:39:37.849Z,35.18
2018-08-03T20:42:06.712Z,34.39
2018-08-03T20:44:35.756Z,34.82
2018-08-03T20:47:04.592Z,35.07
2018-08-03T20:49:33.338Z,34.91
2018-08-03T20:52:02.515Z,35.13
2018-08-03T20:54:31.677Z,35.55
2018-08-03T20:57:00.366Z,35.20
2018-08-03T20:59:29.170Z,35.16
2018-08-03T21:01:57.885Z,34.91
2018-08-03T21:04:26.633Z,34.97
2018-08-03T21:06:55.304Z,35.40
2018-08-03T21:09:24.052Z,34.92
2018-08-03T21:11:52.703Z,35.31
2018-08-03T21:14:21.461Z,35.22
2018-08-03T21:16:50.225Z,35.04
2018-08-03T21:19:18.938Z,34.91
2018-08-03T21:21:47.825Z,35.31
2018-08-03T21:24:16.515Z,35.77
2018-08-03T21:26:45.205Z,36.34
2018-08-03T21:29:14.107Z,36.14
2018-08-03T21:31:42.747Z,36.27
2018-08-03T21:34:11.859Z,36.68
2018-08-03T21:36:41.630Z,36.65
2018-08-03T21:39:11.867Z,36.17
2018-08-03T21:41:40.717Z,36.71
2018-08-03T21:44:09.727Z,37.11
2018-08-03T21:46:38.545Z,37.13
2018-08-03T21:49:07.485Z,37.13
2018-08-03T21:51:36.368Z,36.79
2018-08-03T21:54:05.450Z,36.82
2018-08-03T21:56:34.240Z,37.69
2018-08-03T21:59:02.996Z,36.94
2018-08-03T22:01:32.065Z,37.84
2018-08-03T22:04:01.175Z,37.12
2018-08-03T22:06:29.929Z,38.18
2018-08-03T22:08:58.860Z,37.35
2018-08-03T22:11:27.636Z,37.69
2018-08-03T22:13:56.363Z,37.52
2018-08-03T22:16:25.296Z,36.83
2018-08-03T22:18:54.067Z,36.96
2018-08-03T22:21:22.846Z,37.45
2018-08-03T22:23:51.443Z,37.43
2018-08-03T22:26:20.119Z,36.86
2018-08-03T22:28:48.809Z,37.50
2018-08-03T22:31:17.509Z,37.47
2018-08-03T22:33:46.570Z,36.83
2018-08-03T22:36:15.349Z,36.80
2018-08-03T22:38:44.024Z,37.35
2018-08-03T22:41:12.693Z,36.94
2018-08-03T22:43:41.730Z,37.74
2018-08-03T22:46:10.429Z,38.15
2018-08-03T22:48:39.097Z,37.45
2018-08-03T22:51:08.508Z,37.51
2018-08-03T22:53:37.190Z,37.65
2018-08-03T22:56:06.262Z,38.26
2018-08-03T22:58:35.396Z,37.49
2018-08-03T23:01:04.446Z,38.11
2018-08-03T23:03:33.099Z,38.38
2018-08-03T23:06:01.956Z,38.03
2018-08-03T23:08:30.651Z,38.09
2018-08-03T23:10:59.269Z,38.16
2018-08-03T23:13:28.287Z,38.04
2018-08-03T23:15:57.115Z,38.22
2018-08-03T23:18:25.758Z,39.16
2018-08-03T23:20:54.473Z,38.24
2018-08-03T23:23:24.080Z,38.58
2018-08-03T23:25:52.755Z,39.34
2018-08-03T23:28:21.401Z,38.77
2018-08-03T23:30:50.108Z,38.99
2018-08-03T23:33:18.795Z,39.43
2018-08-03T23:35:47.672Z,39.90
2018-08-03T23:38:16.320Z,39.60
2018-08-03T23:40:45.202Z,39.18
2018-08-03T23:43:13.842Z,39.77
2018-08-03T23:45:42.448Z,39.48
2018-08-03T23:48:11.694Z,39.67
2018-08-03T23:50:40.314Z,39.67
2018-08-03T23:53:08.953Z,40.38
2018-08-03T23:55:37.598Z,40.34
2018-08-03T23:58:06.667Z,39.71
